Time;durP1;ratioP1;P1;durP2;ratioP2;P2;SDS_P1;SDS_P2;PMS_P1;PMS_P2;Temp;Humidity;BMP_temperature;BMP_pressure;BME280_temperature;BME280_humidity;BME280_pressure;Samples;Min_cycle;Max_cycle;Signal;HPM_P1;HPM_P2
2021/11/14 00:02:07;;;;;;;15.07;10.15;;;8.30;84.00;;;;;;5115966;28;20486;-75
2021/11/14 00:04:32;;;;;;;16.50;11.40;;;8.20;83.80;;;;;;5115787;28;20050;-76
2021/11/14 00:06:58;;;;;;;18.58;11.50;;;8.30;83.90;;;;;;5115764;28;20362;-75
2021/11/14 00:09:23;;;;;;;16.80;11.48;;;8.20;83.80;;;;;;5117215;28;20096;-75
2021/11/14 00:11:49;;;;;;;16.02;11.35;;;8.20;83.90;;;;;;5116978;28;20085;-76
2021/11/14 00:14:15;;;;;;;15.27;11.15;;;8.20;84.00;;;;;;5116993;28;20019;-76
2021/11/14 00:16:41;;;;;;;15.70;10.80;;;8.20;84.00;;;;;;5115235;28;20372;-78
2021/11/14 00:19:07;;;;;;;14.23;9.38;;;8.30;84.00;;;;;;5115319;28;20081;-76
2021/11/14 00:21:35;;;;;;;17.13;11.57;;;8.30;83.90;;;;;;5115308;28;20077;-76
2021/11/14 00:24:01;;;;;;;14.88;9.43;;;8.30;83.80;;;;;;5116688;28;20020;-77
2021/11/14 00:26:27;;;;;;;14.32;9.60;;;8.30;83.90;;;;;;5115568;28;20034;-78
2021/11/14 00:28:52;;;;;;;13.95;9.98;;;8.30;83.90;;;;;;5115002;28;20110;-77
2021/11/14 00:31:19;;;;;;;13.90;10.07;;;8.30;83.90;;;;;;5117907;27;20023;-77
2021/11/14 00:33:48;;;;;;;13.77;9.75;;;8.40;83.80;;;;;;5118807;27;20027;-77
2021/11/14 00:36:17;;;;;;;14.55;9.70;;;8.40;83.70;;;;;;5118298;27;20035;-77
2021/11/14 00:38:43;;;;;;;15.27;10.10;;;8.40;83.60;;;;;;5118352;27;20471;-77
2021/11/14 00:41:09;;;;;;;17.98;10.32;;;8.40;83.60;;;;;;5118594;27;20031;-77
2021/11/14 00:43:35;;;;;;;13.82;9.48;;;8.40;83.70;;;;;;5118530;27;20023;-77
2021/11/14 00:46:10;;;;;;;14.80;9.98;;;8.50;83.80;;;;;;5118013;27;20031;-74
2021/11/14 00:48:36;;;;;;;13.90;9.73;;;8.40;83.80;;;;;;5118576;27;20019;-75
2021/11/14 00:51:03;;;;;;;12.07;8.43;;;8.40;83.80;;;;;;5117921;27;20019;-75
2021/11/14 00:53:30;;;;;;;14.20;8.57;;;8.40;83.90;;;;;;5118196;27;20057;-75
2021/11/14 00:55:57;;;;;;;10.63;7.75;;;8.40;83.80;;;;;;5136503;27;20054;-75
2021/11/14 00:58:25;;;;;;;12.15;8.07;;;8.40;83.70;;;;;;5117950;27;20046;-75
2021/11/14 01:00:51;;;;;;;12.68;8.27;;;8.40;83.70;;;;;;5118206;27;20022;-75
2021/11/14 01:03:17;;;;;;;9.68;7.35;;;8.40;83.70;;;;;;5136398;27;20034;-75
2021/11/14 01:05:43;;;;;;;10.65;8.02;;;8.40;83.60;;;;;;5117591;27;20402;-74
2021/11/14 01:08:11;;;;;;;11.82;8.65;;;8.40;83.60;;;;;;5118097;27;20494;-75
2021/11/14 01:10:42;;;;;;;14.63;9.52;;;8.40;83.70;;;;;;5117954;27;20056;-74
2021/11/14 01:13:07;;;;;;;15.32;10.60;;;8.40;83.80;;;;;;5100913;27;20510;-74
2021/11/14 01:15:35;;;;;;;18.55;11.93;;;8.30;84.20;;;;;;5117355;27;20023;-74
2021/11/14 01:18:01;;;;;;;16.98;10.93;;;8.30;84.50;;;;;;5117848;27;20118;-75
2021/11/14 01:20:31;;;;;;;17.83;11.02;;;8.20;85.10;;;;;;5136163;27;20070;-74
2021/11/14 01:22:59;;;;;;;22.20;11.52;;;8.10;85.70;;;;;;5117762;27;20029;-75
2021/11/14 01:25:25;;;;;;;15.27;10.05;;;8.10;85.60;;;;;;5117605;27;20030;-75
2021/11/14 01:27:52;;;;;;;14.55;10.00;;;8.10;85.80;;;;;;5117688;27;20059;-76
2021/11/14 01:30:23;;;;;;;15.18;9.93;;;8.10;85.70;;;;;;5117593;27;20023;-76
2021/11/14 01:32:49;;;;;;;14.25;9.35;;;8.10;85.80;;;;;;5135960;27;20479;-76
2021/11/14 01:35:15;;;;;;;10.88;8.27;;;8.20;85.80;;;;;;5117232;27;20034;-76
2021/11/14 01:37:42;;;;;;;11.25;7.53;;;8.20;85.70;;;;;;5117253;27;20027;-76
2021/11/14 01:40:12;;;;;;;10.35;7.10;;;8.20;85.70;;;;;;5117455;27;20022;-76
2021/11/14 01:42:38;;;;;;;10.50;7.85;;;8.20;85.50;;;;;;5116728;27;20042;-76
2021/11/14 01:45:04;;;;;;;9.60;6.63;;;8.20;85.50;;;;;;5116905;27;20016;-76
2021/11/14 01:47:29;;;;;;;11.20;7.70;;;8.20;85.50;;;;;;5116768;27;20050;-76
2021/11/14 01:49:56;;;;;;;15.45;9.95;;;8.10;85.70;;;;;;5116834;27;20031;-76
2021/11/14 01:52:27;;;;;;;14.55;9.38;;;8.10;86.10;;;;;;5117278;27;20019;-76
2021/11/14 01:54:53;;;;;;;14.25;9.73;;;8.10;86.00;;;;;;5129005;27;20031;-76
2021/11/14 01:57:20;;;;;;;15.85;9.93;;;8.10;86.20;;;;;;5116842;27;20046;-76
2021/11/14 01:59:46;;;;;;;14.95;9.27;;;8.00;86.20;;;;;;5116718;27;20034;-76
2021/11/14 02:02:13;;;;;;;15.20;9.27;;;8.00;86.20;;;;;;5116589;27;20466;-75
2021/11/14 02:04:40;;;;;;;14.82;9.55;;;8.10;86.30;;;;;;5116685;27;20023;-75
2021/11/14 02:07:10;;;;;;;15.50;10.27;;;8.10;86.20;;;;;;5116889;27;20483;-75
2021/11/14 02:09:35;;;;;;;14.93;10.32;;;8.00;86.20;;;;;;5116601;27;20019;-75
2021/11/14 02:12:02;;;;;;;14.27;9.88;;;8.10;86.20;;;;;;5116835;27;20475;-75
2021/11/14 02:14:28;;;;;;;15.45;9.95;;;8.00;86.10;;;;;;5116744;27;20118;-75
2021/11/14 02:16:54;;;;;;;17.60;10.73;;;8.00;86.20;;;;;;5116683;27;20068;-75
2021/11/14 02:19:19;;;;;;;13.82;9.90;;;8.00;86.10;;;;;;5135263;27;20020;-76
2021/11/14 02:21:47;;;;;;;15.15;9.90;;;8.00;86.10;;;;;;5116165;27;20075;-75
2021/11/14 02:24:12;;;;;;;17.15;11.13;;;8.00;86.20;;;;;;5116746;27;20110;-75
2021/11/14 02:26:38;;;;;;;18.98;10.40;;;8.00;86.30;;;;;;5116860;27;20160;-75
2021/11/14 02:29:04;;;;;;;18.02;10.80;;;8.00;86.30;;;;;;5116897;27;20105;-76
2021/11/14 02:31:29;;;;;;;16.67;10.57;;;8.00;86.10;;;;;;5113101;28;20058;-75
2021/11/14 02:33:57;;;;;;;17.05;10.82;;;8.00;86.20;;;;;;5112924;28;20023;-75
2021/11/14 02:36:23;;;;;;;17.45;11.23;;;8.00;86.30;;;;;;5113254;28;20057;-75
2021/11/14 02:38:49;;;;;;;19.95;12.75;;;7.90;86.30;;;;;;5113599;28;20159;-75
2021/11/14 02:41:16;;;;;;;15.77;10.48;;;7.90;86.60;;;;;;5114454;28;20027;-75
2021/11/14 02:43:45;;;;;;;18.05;11.85;;;7.80;86.80;;;;;;5116940;28;20045;-75
2021/11/14 02:46:11;;;;;;;17.00;10.48;;;7.80;87.00;;;;;;5113454;28;20024;-75
2021/11/14 02:48:37;;;;;;;19.38;12.55;;;7.80;87.10;;;;;;5114277;28;20080;-75
2021/11/14 02:51:09;;;;;;;17.30;10.45;;;7.80;87.10;;;;;;5113801;28;20015;-75
2021/11/14 02:53:35;;;;;;;16.55;10.07;;;7.80;87.10;;;;;;5119568;28;20114;-75
2021/11/14 02:56:01;;;;;;;17.15;11.00;;;7.90;87.10;;;;;;5113734;28;20027;-76
2021/11/14 02:58:30;;;;;;;17.35;11.00;;;7.90;87.20;;;;;;5114408;28;20026;-76
2021/11/14 03:01:06;;;;;;;16.45;11.10;;;7.90;87.40;;;;;;5124033;28;20027;-76
2021/11/14 03:03:33;;;;;;;14.88;9.30;;;7.90;87.50;;;;;;5118626;28;20030;-76
2021/11/14 03:05:59;;;;;;;15.65;10.10;;;7.90;88.10;;;;;;5110080;28;20048;-76
2021/11/14 03:08:26;;;;;;;14.52;9.73;;;7.90;88.20;;;;;;5130403;28;20044;-76
2021/11/14 03:10:52;;;;;;;13.80;9.63;;;7.90;88.50;;;;;;5130315;28;20032;-77
2021/11/14 03:13:20;;;;;;;14.73;9.10;;;7.90;88.50;;;;;;5128917;28;20104;-76
2021/11/14 03:15:53;;;;;;;14.57;9.50;;;7.80;88.70;;;;;;5124363;28;20451;-77
2021/11/14 03:18:20;;;;;;;16.23;10.05;;;7.90;89.10;;;;;;5117667;28;20484;-77
2021/11/14 03:20:47;;;;;;;16.13;9.32;;;7.80;89.50;;;;;;5114436;28;20020;-76
2021/11/14 03:23:14;;;;;;;14.55;9.07;;;7.80;89.50;;;;;;5097411;28;20049;-77
2021/11/14 03:25:40;;;;;;;15.13;9.63;;;7.90;89.60;;;;;;5113089;28;20031;-77
2021/11/14 03:28:06;;;;;;;13.77;8.95;;;7.90;89.50;;;;;;5113798;28;20031;-76
2021/11/14 03:30:33;;;;;;;15.30;10.13;;;8.00;89.40;;;;;;5113919;28;20020;-77
2021/11/14 03:33:10;;;;;;;14.18;9.15;;;8.00;89.30;;;;;;5113801;28;20330;-76
2021/11/14 03:35:59;;;;;;;16.08;10.32;;;8.10;89.40;;;;;;5114179;28;20036;-76
2021/11/14 03:38:32;;;;;;;14.38;9.90;;;8.10;89.20;;;;;;5113993;28;20054;-76
2021/11/14 03:40:59;;;;;;;15.98;10.13;;;8.10;89.00;;;;;;5106824;28;20069;-76
2021/11/14 03:43:25;;;;;;;14.57;9.38;;;8.20;88.90;;;;;;5112297;28;20107;-76
2021/11/14 03:45:51;;;;;;;14.88;10.52;;;8.20;88.80;;;;;;5112146;28;20122;-76
2021/11/14 03:48:16;;;;;;;13.48;9.75;;;8.10;88.80;;;;;;5112019;28;20046;-76
2021/11/14 03:50:42;;;;;;;12.57;9.00;;;8.10;88.60;;;;;;5112105;28;20026;-76
2021/11/14 03:53:10;;;;;;;14.88;9.80;;;8.10;88.40;;;;;;5112087;28;20059;-76
2021/11/14 03:55:37;;;;;;;15.85;9.80;;;8.10;88.30;;;;;;5111932;28;20069;-77
2021/11/14 03:58:05;;;;;;;17.27;10.70;;;8.10;88.20;;;;;;5112196;28;20114;-77
2021/11/14 04:00:35;;;;;;;14.43;9.88;;;8.10;88.10;;;;;;5113402;28;20020;-76
2021/11/14 04:03:01;;;;;;;16.20;10.27;;;8.10;88.00;;;;;;5111827;28;20096;-76
2021/11/14 04:05:30;;;;;;;16.40;9.90;;;8.10;87.90;;;;;;5111573;28;20019;-76
2021/11/14 04:07:59;;;;;;;16.77;9.95;;;8.00;87.80;;;;;;5111815;28;20106;-76
2021/11/14 04:10:26;;;;;;;15.32;10.10;;;8.00;87.80;;;;;;5094983;28;20031;-76
2021/11/14 04:12:52;;;;;;;16.92;10.38;;;8.00;87.90;;;;;;5111496;28;20061;-76
2021/11/14 04:15:18;;;;;;;15.85;9.57;;;8.00;87.80;;;;;;5111570;28;20024;-76
2021/11/14 04:17:44;;;;;;;19.08;10.57;;;8.00;87.80;;;;;;5111421;28;20051;-76
2021/11/14 04:20:12;;;;;;;16.98;10.75;;;8.10;87.80;;;;;;5111464;28;20172;-76
2021/11/14 04:22:40;;;;;;;17.23;10.73;;;8.10;87.70;;;;;;5111688;28;20387;-76
2021/11/14 04:25:07;;;;;;;17.13;10.55;;;8.10;87.40;;;;;;5111798;28;20023;-76
2021/11/14 04:27:33;;;;;;;17.25;10.93;;;8.10;87.20;;;;;;5111140;28;20167;-76
2021/11/14 04:29:59;;;;;;;15.25;9.98;;;8.10;87.90;;;;;;5111666;28;20066;-76
2021/11/14 04:32:24;;;;;;;16.35;10.15;;;8.10;86.80;;;;;;5111132;28;20134;-75
2021/11/14 04:34:50;;;;;;;14.25;9.98;;;8.00;86.70;;;;;;5114463;28;20020;-76
2021/11/14 04:37:16;;;;;;;13.43;9.25;;;8.00;87.50;;;;;;5115444;28;20030;-76
2021/11/14 04:39:41;;;;;;;13.38;9.23;;;8.00;86.60;;;;;;5115301;28;20055;-76
2021/11/14 04:42:08;;;;;;;14.18;9.02;;;8.00;86.60;;;;;;5115000;28;20539;-76
2021/11/14 04:44:35;;;;;;;14.13;9.40;;;8.00;86.60;;;;;;5115313;28;20387;-76
2021/11/14 04:47:01;;;;;;;16.83;9.70;;;8.10;86.40;;;;;;5114865;28;20031;-76
2021/11/14 04:49:27;;;;;;;16.42;9.77;;;8.00;85.90;;;;;;5115163;28;20567;-76
2021/11/14 04:51:53;;;;;;;15.05;9.98;;;8.00;85.90;;;;;;5114655;28;20115;-76
2021/11/14 04:54:19;;;;;;;15.60;9.48;;;8.00;86.00;;;;;;5115044;28;20043;-76
2021/11/14 04:56:49;;;;;;;15.48;9.98;;;7.90;86.10;;;;;;5114951;28;20024;-76
2021/11/14 04:59:16;;;;;;;14.95;10.10;;;7.80;86.00;;;;;;5114557;28;20027;-76
2021/11/14 05:01:42;;;;;;;16.85;10.45;;;7.80;86.40;;;;;;5114144;28;20020;-76
2021/11/14 05:04:08;;;;;;;15.02;10.07;;;7.70;86.50;;;;;;5114978;28;20031;-76
2021/11/14 05:06:34;;;;;;;17.13;11.02;;;7.70;87.40;;;;;;5114544;28;20035;-76
2021/11/14 05:09:00;;;;;;;16.38;9.98;;;7.70;86.70;;;;;;5114450;28;20027;-76
2021/11/14 05:11:26;;;;;;;15.80;9.35;;;7.70;86.90;;;;;;5115795;28;20062;-76
2021/11/14 05:13:52;;;;;;;17.42;9.60;;;7.70;86.80;;;;;;5114664;28;20047;-76
2021/11/14 05:16:18;;;;;;;15.32;9.60;;;7.70;86.70;;;;;;5114334;28;20474;-76
2021/11/14 05:18:43;;;;;;;14.50;9.15;;;7.80;87.50;;;;;;5115482;28;20024;-76
2021/11/14 05:21:09;;;;;;;14.60;9.13;;;7.70;86.60;;;;;;5114388;28;20069;-77
2021/11/14 05:23:36;;;;;;;15.75;9.40;;;7.70;86.50;;;;;;5114437;28;20481;-76
2021/11/14 05:26:02;;;;;;;13.90;8.95;;;7.70;86.50;;;;;;5114270;28;20179;-76
2021/11/14 05:28:28;;;;;;;15.45;9.35;;;7.70;86.40;;;;;;5114325;28;20019;-76
2021/11/14 05:30:53;;;;;;;13.10;8.50;;;7.80;86.30;;;;;;5113797;28;20510;-76
2021/11/14 05:33:19;;;;;;;17.05;10.00;;;7.70;86.30;;;;;;5114221;28;20040;-75
2021/11/14 05:35:45;;;;;;;15.10;9.45;;;7.70;86.40;;;;;;5114253;28;20016;-75
2021/11/14 05:38:11;;;;;;;17.65;10.45;;;7.70;86.70;;;;;;5113836;28;20544;-75
2021/11/14 05:40:37;;;;;;;17.50;9.45;;;7.70;86.80;;;;;;5113681;28;20031;-75
2021/11/14 05:43:04;;;;;;;15.75;10.00;;;7.70;87.50;;;;;;5113746;28;20038;-75
2021/11/14 05:45:30;;;;;;;18.02;10.68;;;7.70;86.70;;;;;;5096145;28;20059;-75
2021/11/14 05:47:56;;;;;;;15.27;9.80;;;7.60;86.50;;;;;;5113798;28;20063;-76
2021/11/14 05:50:22;;;;;;;16.90;10.23;;;7.60;87.60;;;;;;5113637;28;20110;-75
2021/11/14 05:52:48;;;;;;;16.10;10.00;;;7.60;86.80;;;;;;5113583;28;20563;-75
2021/11/14 05:55:13;;;;;;;17.75;10.00;;;7.70;86.90;;;;;;5114004;28;20074;-75
2021/11/14 06:00:11;;;;;;;17.08;10.48;;;7.60;86.70;;;;;;5114928;28;20034;-74
2021/11/14 06:02:46;;;;;;;16.27;10.20;;;7.60;86.80;;;;;;5113680;28;20030;-75
2021/11/14 06:05:19;;;;;;;17.13;10.80;;;7.60;86.80;;;;;;5113605;28;20023;-75
2021/11/14 06:07:46;;;;;;;18.63;11.02;;;7.60;86.90;;;;;;5097521;28;20036;-75
2021/11/14 06:10:14;;;;;;;16.10;10.10;;;7.60;86.90;;;;;;5113472;28;20031;-75
2021/11/14 06:12:40;;;;;;;18.67;10.68;;;7.70;87.00;;;;;;5113540;28;20110;-75
2021/11/14 06:15:09;;;;;;;17.52;10.88;;;7.70;87.00;;;;;;5114683;28;20016;-76
2021/11/14 06:17:35;;;;;;;16.45;10.40;;;7.70;86.90;;;;;;5113393;28;20034;-76
2021/11/14 06:20:02;;;;;;;18.38;9.52;;;7.70;86.90;;;;;;5114151;28;20027;-76
2021/11/14 06:22:27;;;;;;;17.60;10.18;;;7.80;86.60;;;;;;5113181;28;20118;-76
2021/11/14 06:24:53;;;;;;;16.90;9.90;;;7.80;86.50;;;;;;5112630;28;20486;-76
2021/11/14 06:27:19;;;;;;;15.73;9.75;;;7.80;86.60;;;;;;5113166;28;20084;-76
2021/11/14 06:29:44;;;;;;;17.00;9.30;;;7.80;86.50;;;;;;5112730;28;20502;-77
2021/11/14 06:32:10;;;;;;;13.45;8.90;;;7.90;86.40;;;;;;5124204;27;20042;-77
2021/11/14 06:34:36;;;;;;;16.95;9.82;;;7.90;86.30;;;;;;5116339;27;20027;-76
2021/11/14 06:37:03;;;;;;;15.80;9.23;;;7.90;86.20;;;;;;5116484;27;20024;-78
2021/11/14 06:39:28;;;;;;;19.50;10.85;;;7.90;86.10;;;;;;5134087;27;20027;-77
2021/11/14 06:41:54;;;;;;;15.73;9.40;;;7.90;85.90;;;;;;5116024;27;20019;-76
2021/11/14 06:44:19;;;;;;;13.75;8.93;;;7.90;85.90;;;;;;5116051;27;20019;-76
2021/11/14 06:46:45;;;;;;;15.70;9.32;;;7.90;86.00;;;;;;5115852;27;20073;-77
2021/11/14 06:49:10;;;;;;;16.67;10.05;;;7.90;86.00;;;;;;5115803;27;20058;-77
2021/11/14 06:51:36;;;;;;;16.88;10.20;;;7.90;85.80;;;;;;5116068;27;20142;-77
2021/11/14 06:54:02;;;;;;;14.88;8.85;;;7.90;85.80;;;;;;5134508;27;20103;-77
2021/11/14 06:56:29;;;;;;;14.70;8.80;;;7.90;85.80;;;;;;5134147;27;20019;-77
2021/11/14 06:58:54;;;;;;;17.25;9.13;;;8.00;85.80;;;;;;5115651;27;20015;-77
2021/11/14 07:01:20;;;;;;;16.90;9.90;;;8.00;85.60;;;;;;5115738;27;20027;-77
2021/11/14 07:03:45;;;;;;;16.70;9.25;;;8.00;85.60;;;;;;5115627;27;20015;-77
2021/11/14 07:06:11;;;;;;;14.98;8.93;;;8.00;85.50;;;;;;5116092;27;20035;-77
2021/11/14 07:08:37;;;;;;;13.95;8.68;;;8.10;85.60;;;;;;5115510;27;20019;-76
2021/11/14 07:11:02;;;;;;;15.13;8.98;;;8.10;85.40;;;;;;5115946;27;20030;-76
2021/11/14 07:13:28;;;;;;;16.75;10.07;;;8.10;85.10;;;;;;5115886;27;20368;-76
2021/11/14 07:15:54;;;;;;;15.68;9.32;;;8.10;84.70;;;;;;5115765;27;20023;-76
2021/11/14 07:18:20;;;;;;;17.92;10.07;;;8.10;84.90;;;;;;5115096;27;20483;-76
2021/11/14 07:20:46;;;;;;;16.85;9.70;;;8.10;84.90;;;;;;5114979;27;20051;-76
2021/11/14 07:23:11;;;;;;;23.50;12.00;;;8.10;84.90;;;;;;5133381;27;20556;-76
2021/11/14 07:25:37;;;;;;;26.05;13.18;;;8.10;85.70;;;;;;5115202;28;20475;-75
2021/11/14 07:28:03;;;;;;;20.55;12.10;;;8.20;84.80;;;;;;5115301;27;20055;-76
2021/11/14 07:30:29;;;;;;;21.98;12.77;;;8.20;84.80;;;;;;5115391;28;20352;-76
2021/11/14 07:32:55;;;;;;;21.02;12.13;;;8.10;84.90;;;;;;5115164;27;20138;-76
2021/11/14 07:35:24;;;;;;;20.08;11.90;;;8.20;84.70;;;;;;5115115;28;20496;-76
2021/11/14 07:37:50;;;;;;;22.23;12.60;;;8.20;84.60;;;;;;5115182;27;20142;-76
2021/11/14 07:40:17;;;;;;;23.75;13.65;;;8.20;84.70;;;;;;5115077;28;20015;-76
2021/11/14 07:42:46;;;;;;;20.05;12.65;;;8.20;84.80;;;;;;5115368;27;20031;-75
2021/11/14 07:45:14;;;;;;;19.38;12.50;;;8.20;85.60;;;;;;5098507;28;20407;-75
2021/11/14 07:47:40;;;;;;;22.75;12.95;;;8.30;84.80;;;;;;5115085;28;20039;-75
2021/11/14 07:50:07;;;;;;;19.55;11.77;;;8.40;84.70;;;;;;5133345;27;20034;-74
2021/11/14 07:52:33;;;;;;;21.27;12.80;;;8.40;84.90;;;;;;5115216;28;20047;-77
2021/11/14 07:54:59;;;;;;;22.70;13.63;;;8.50;84.80;;;;;;5114959;27;20127;-77
2021/11/14 07:57:25;;;;;;;21.45;13.32;;;8.50;84.60;;;;;;5098024;28;20464;-76
2021/11/14 07:59:51;;;;;;;20.45;11.95;;;8.60;84.20;;;;;;5115152;27;20475;-77
2021/11/14 08:02:17;;;;;;;17.55;11.15;;;8.60;84.00;;;;;;5114868;28;20026;-77
2021/11/14 08:04:43;;;;;;;19.08;11.82;;;8.60;83.90;;;;;;5115086;28;20019;-77
2021/11/14 08:07:09;;;;;;;18.23;11.05;;;8.60;83.90;;;;;;5115083;28;20045;-77
2021/11/14 08:09:36;;;;;;;17.60;10.60;;;8.60;83.80;;;;;;5117669;27;20019;-75
2021/11/14 08:12:02;;;;;;;15.75;9.68;;;8.70;83.90;;;;;;5119178;27;20470;-77
2021/11/14 08:14:28;;;;;;;15.77;9.65;;;8.70;83.80;;;;;;5119010;27;20020;-77
2021/11/14 08:16:53;;;;;;;14.10;9.07;;;8.80;83.70;;;;;;5118536;27;20544;-77
2021/11/14 08:19:19;;;;;;;12.23;8.35;;;8.80;83.60;;;;;;5118596;27;20384;-78
2021/11/14 08:21:45;;;;;;;15.07;8.70;;;8.80;83.50;;;;;;5118418;27;20049;-79
2021/11/14 08:24:12;;;;;;;11.07;7.75;;;8.90;83.60;;;;;;5118611;27;20035;-78
2021/11/14 08:26:37;;;;;;;13.32;8.05;;;8.90;83.30;;;;;;5118662;27;20031;-78
2021/11/14 08:29:03;;;;;;;15.32;9.40;;;9.00;83.30;;;;;;5118619;27;20364;-81
2021/11/14 08:31:29;;;;;;;14.10;8.65;;;9.10;82.90;;;;;;5114645;28;20036;-78
2021/11/14 08:33:55;;;;;;;15.80;10.05;;;9.20;82.90;;;;;;5081369;28;20514;-79
2021/11/14 08:36:21;;;;;;;14.75;10.38;;;9.30;82.70;;;;;;5114830;28;20027;-78
2021/11/14 08:38:48;;;;;;;13.05;9.30;;;9.40;82.10;;;;;;5114919;28;20107;-77
2021/11/14 08:41:15;;;;;;;20.88;10.90;;;9.40;81.90;;;;;;5098404;28;20028;-78
2021/11/14 08:43:42;;;;;;;17.63;10.85;;;9.60;85.30;;;;;;5115287;28;20400;-78
2021/11/14 08:46:09;;;;;;;24.17;11.88;;;9.90;85.40;;;;;;5115965;28;20035;-76
2021/11/14 08:48:35;;;;;;;16.58;11.93;;;10.20;82.90;;;;;;5116340;28;20104;-76
2021/11/14 08:51:00;;;;;;;20.20;12.13;;;10.40;81.50;;;;;;5114879;28;20065;-77
2021/11/14 08:53:28;;;;;;;18.55;11.70;;;10.60;80.10;;;;;;5115464;28;20024;-80
2021/11/14 08:55:55;;;;;;;13.70;9.95;;;11.00;79.30;;;;;;5115226;28;20342;-76
2021/11/14 08:58:22;;;;;;;18.33;12.38;;;11.10;78.50;;;;;;5116114;28;20053;-77
2021/11/14 09:00:47;;;;;;;16.52;10.73;;;11.20;76.40;;;;;;5114492;28;20315;-77
2021/11/14 09:03:13;;;;;;;15.43;11.18;;;11.20;76.80;;;;;;5114740;28;20022;-77
2021/11/14 09:05:40;;;;;;;14.00;10.25;;;11.40;76.40;;;;;;5113724;28;20032;-76
2021/11/14 09:08:06;;;;;;;14.88;10.52;;;11.50;75.90;;;;;;5114316;28;20032;-76
2021/11/14 09:10:34;;;;;;;15.52;10.40;;;11.60;74.90;;;;;;5114344;28;20417;-76
2021/11/14 09:13:02;;;;;;;13.30;10.02;;;11.80;73.90;;;;;;5115652;28;20048;-77
2021/11/14 09:15:29;;;;;;;13.05;9.20;;;11.70;72.80;;;;;;5114336;28;20050;-77
2021/11/14 09:17:56;;;;;;;10.43;7.75;;;11.50;71.80;;;;;;5097264;28;20462;-77
2021/11/14 09:20:22;;;;;;;9.88;6.45;;;11.20;71.40;;;;;;5114199;28;20020;-77
2021/11/14 09:22:49;;;;;;;9.18;6.68;;;11.00;72.30;;;;;;5114131;28;20472;-77
2021/11/14 09:25:15;;;;;;;10.90;7.90;;;11.00;72.80;;;;;;5114161;28;20161;-76
2021/11/14 09:27:41;;;;;;;14.85;9.15;;;11.00;73.10;;;;;;5113555;28;20066;-76
2021/11/14 09:30:08;;;;;;;14.95;8.88;;;10.90;73.80;;;;;;5104294;28;20035;-76
2021/11/14 09:32:35;;;;;;;13.18;8.52;;;10.90;73.80;;;;;;5085585;28;20419;-77
2021/11/14 09:35:00;;;;;;;15.63;9.93;;;11.10;74.30;;;;;;5087964;28;20411;-77
2021/11/14 09:37:27;;;;;;;12.65;7.70;;;11.20;73.20;;;;;;5112283;28;20024;-77
2021/11/14 09:39:53;;;;;;;10.77;6.72;;;11.10;72.60;;;;;;5113965;28;20151;-77
2021/11/14 09:42:23;;;;;;;10.25;6.45;;;11.10;72.60;;;;;;5114183;28;20486;-77
2021/11/14 09:44:48;;;;;;;10.38;6.82;;;11.10;72.70;;;;;;5080445;28;20024;-77
2021/11/14 09:47:15;;;;;;;9.55;6.45;;;11.00;72.70;;;;;;5113439;28;20057;-77
2021/11/14 09:49:41;;;;;;;9.15;5.90;;;10.90;72.60;;;;;;5113455;28;20048;-77
2021/11/14 09:52:14;;;;;;;9.75;5.93;;;10.80;72.70;;;;;;5114815;28;20107;-79
2021/11/14 09:54:42;;;;;;;9.52;6.05;;;10.80;72.90;;;;;;5113696;28;20134;-76
2021/11/14 09:57:11;;;;;;;10.38;6.75;;;10.70;73.10;;;;;;5096647;28;20032;-78
2021/11/14 09:59:36;;;;;;;10.73;6.88;;;10.70;73.30;;;;;;5113626;28;20428;-76
2021/11/14 10:02:04;;;;;;;10.20;6.57;;;10.60;73.20;;;;;;5113366;28;20031;-76
2021/11/14 10:04:31;;;;;;;10.40;6.47;;;10.60;73.20;;;;;;5114568;28;20544;-75
2021/11/14 10:07:12;;;;;;;11.25;7.60;;;10.60;73.30;;;;;;5114547;28;20063;-77
2021/11/14 10:09:44;;;;;;;13.95;7.72;;;10.60;73.10;;;;;;5114242;28;20077;-75
2021/11/14 10:12:14;;;;;;;13.07;7.70;;;10.60;73.00;;;;;;5114080;28;20020;-76
2021/11/14 10:14:41;;;;;;;15.23;8.70;;;10.60;72.90;;;;;;5113717;28;20019;-77
2021/11/14 10:17:19;;;;;;;15.57;8.80;;;10.50;72.90;;;;;;5115462;28;20027;-79
2021/11/14 10:19:56;;;;;;;14.18;8.27;;;10.40;73.20;;;;;;5114272;28;20110;-79
2021/11/14 10:22:22;;;;;;;17.45;9.52;;;10.30;73.50;;;;;;5114106;28;20019;-78
2021/11/14 10:24:48;;;;;;;17.17;10.02;;;10.20;73.90;;;;;;5120274;28;20115;-78
2021/11/14 10:27:15;;;;;;;18.50;10.52;;;10.10;74.40;;;;;;5130461;28;20136;-78
2021/11/14 10:29:47;;;;;;;19.48;10.20;;;10.00;74.90;;;;;;5113176;28;20540;-77
2021/11/14 10:32:15;;;;;;;17.17;9.98;;;9.90;75.50;;;;;;5111989;28;20116;-76
2021/11/14 10:34:46;;;;;;;16.15;9.48;;;9.80;75.60;;;;;;5112844;28;20028;-76
2021/11/14 10:37:12;;;;;;;16.65;10.00;;;9.80;75.80;;;;;;5112883;28;20020;-76
2021/11/14 10:39:39;;;;;;;18.65;10.95;;;9.80;76.00;;;;;;5112259;28;20110;-75
2021/11/14 10:42:15;;;;;;;17.83;10.07;;;9.70;76.00;;;;;;5112637;28;20126;-75
2021/11/14 10:44:45;;;;;;;;;;;9.70;76.10;;;;;;5112961;28;20062;-75
2021/11/14 10:47:13;;;;;;;15.23;8.98;;;9.70;76.00;;;;;;5111947;28;19923;-75
2021/11/14 10:49:50;;;;;;;18.73;9.80;;;9.70;76.00;;;;;;5112317;28;20051;-75
2021/11/14 10:52:15;;;;;;;15.00;9.30;;;9.70;76.20;;;;;;5112594;28;20034;-75
2021/11/14 10:54:42;;;;;;;16.27;9.55;;;9.70;76.10;;;;;;5112134;28;20027;-75
2021/11/14 10:57:08;;;;;;;17.25;9.85;;;9.80;76.10;;;;;;5112617;28;20024;-75
2021/11/14 10:59:34;;;;;;;15.60;9.45;;;9.90;76.20;;;;;;5112461;28;20026;-75
2021/11/14 11:02:03;;;;;;;16.52;10.13;;;10.10;76.00;;;;;;5112198;28;20035;-76
2021/11/14 11:04:28;;;;;;;17.83;10.32;;;10.30;75.40;;;;;;5113547;28;20061;-77
2021/11/14 11:06:54;;;;;;;18.13;10.10;;;10.40;74.80;;;;;;5111939;28;20059;-77
2021/11/14 11:09:30;;;;;;;16.10;9.52;;;10.50;74.20;;;;;;5113319;28;20650;-75
2021/11/14 11:11:56;;;;;;;14.93;9.35;;;10.70;73.70;;;;;;5112331;28;20459;-77
2021/11/14 11:14:26;;;;;;;15.32;9.43;;;10.70;73.20;;;;;;5112023;28;20019;-77
2021/11/14 11:16:51;;;;;;;15.25;9.38;;;10.80;72.80;;;;;;5111990;28;20027;-75
2021/11/14 11:19:24;;;;;;;14.98;9.43;;;10.80;72.60;;;;;;5112155;28;20028;-77
2021/11/14 11:21:50;;;;;;;15.82;9.52;;;10.80;72.50;;;;;;5111951;28;20058;-77
2021/11/14 11:24:22;;;;;;;15.35;9.25;;;10.80;72.60;;;;;;5095103;28;20101;-77
2021/11/14 11:27:02;;;;;;;14.82;8.77;;;10.70;72.60;;;;;;5111898;28;20035;-77
2021/11/14 11:29:30;;;;;;;15.40;8.82;;;10.70;72.70;;;;;;5112063;28;20023;-77
2021/11/14 11:31:56;;;;;;;17.02;10.18;;;10.60;72.80;;;;;;5111748;28;20085;-77
2021/11/14 11:34:24;;;;;;;16.13;10.20;;;10.60;73.50;;;;;;5111764;28;20051;-77
2021/11/14 11:36:50;;;;;;;20.13;13.13;;;10.50;74.50;;;;;;5111768;28;20112;-77
2021/11/14 11:39:17;;;;;;;18.85;12.68;;;10.40;76.10;;;;;;5111700;28;20030;-77
2021/11/14 11:41:45;;;;;;;22.73;14.20;;;10.30;77.90;;;;;;5111954;28;20110;-78
2021/11/14 11:44:12;;;;;;;22.52;14.27;;;10.10;79.20;;;;;;5113762;28;20539;-78
2021/11/14 11:46:41;;;;;;;21.48;12.90;;;10.10;79.20;;;;;;5098668;28;20031;-77
2021/11/14 11:49:14;;;;;;;21.67;13.38;;;10.00;79.40;;;;;;5116334;28;20383;-78
2021/11/14 11:51:47;;;;;;;25.77;14.80;;;9.90;80.30;;;;;;5116173;28;20423;-77
2021/11/14 11:54:16;;;;;;;22.98;15.27;;;9.80;80.70;;;;;;5116170;28;20027;-77
2021/11/14 11:56:46;;;;;;;24.23;15.65;;;9.80;81.30;;;;;;5116774;28;20028;-77
2021/11/14 11:59:26;;;;;;;23.95;15.43;;;9.70;82.50;;;;;;5117259;28;20030;-77
2021/11/14 12:01:59;;;;;;;26.67;16.45;;;9.50;83.40;;;;;;5121301;28;20120;-76
2021/11/14 12:04:35;;;;;;;27.98;16.65;;;9.40;84.00;;;;;;5116784;28;20069;-78
2021/11/14 12:07:05;;;;;;;26.65;16.02;;;9.30;84.80;;;;;;5102547;28;20039;-76
2021/11/14 12:09:55;;;;;;;27.48;17.17;;;9.30;84.90;;;;;;5122055;28;20016;-75
2021/11/14 12:12:25;;;;;;;29.38;16.77;;;9.30;85.30;;;;;;5116498;28;20487;-77
2021/11/14 12:15:15;;;;;;;30.50;17.20;;;9.20;85.70;;;;;;5119503;28;20023;-78
2021/11/14 12:17:53;;;;;;;29.52;17.58;;;9.10;85.80;;;;;;5115799;28;20027;-77
2021/11/14 12:20:32;;;;;;;29.25;18.08;;;9.10;85.90;;;;;;5116312;28;20361;-78
2021/11/14 12:23:18;;;;;;;31.70;18.08;;;9.00;86.30;;;;;;5101285;28;20039;-78
2021/11/14 12:25:46;;;;;;;28.83;17.00;;;8.90;86.60;;;;;;5115170;28;20015;-78
2021/11/14 12:28:20;;;;;;;32.20;18.40;;;8.80;86.70;;;;;;5115244;28;20023;-78
2021/11/14 12:31:14;;;;;;;28.25;16.60;;;8.70;87.00;;;;;;5114757;28;20104;-79
2021/11/14 12:33:53;;;;;;;31.77;17.77;;;8.70;87.50;;;;;;5115249;28;20042;-79
2021/11/14 12:36:37;;;;;;;27.80;16.90;;;8.70;87.40;;;;;;5116417;28;20034;-79
2021/11/14 12:39:30;;;;;;;30.58;18.13;;;8.60;88.00;;;;;;5115332;28;20395;-82
2021/11/14 12:42:05;;;;;;;32.45;18.98;;;8.60;88.60;;;;;;5114980;28;20027;-80
2021/11/14 12:44:58;;;;;;;21.33;12.50;;;8.60;88.90;;;;;;5114642;28;20464;-83
2021/11/14 12:47:30;;;;;;;25.88;15.75;;;8.60;88.90;;;;;;5110301;28;20040;-79